createdAt,value
2016-09-26T00:00:34.672Z,17.48
2016-09-26T00:01:34.647Z,17.44
2016-09-26T00:02:34.626Z,17.49
2016-09-26T00:03:34.604Z,17.36
2016-09-26T00:04:34.579Z,17.44
2016-09-26T00:05:34.564Z,17.44
2016-09-26T00:06:34.540Z,17.44
2016-09-26T00:07:34.528Z,17.39
2016-09-26T00:08:34.505Z,17.34
2016-09-26T00:09:34.478Z,17.38
2016-09-26T00:10:34.460Z,17.34
2016-09-26T00:11:34.433Z,17.38
2016-09-26T00:12:34.431Z,17.36
2016-09-26T00:13:34.390Z,17.3
2016-09-26T00:14:34.365Z,17.3
2016-09-26T00:15:34.343Z,17.27
2016-09-26T00:16:34.321Z,17.34
2016-09-26T00:17:34.298Z,17.27
2016-09-26T00:18:34.281Z,17.22
2016-09-26T00:19:34.255Z,17.23
2016-09-26T00:20:34.237Z,17.22
2016-09-26T00:21:34.214Z,17.2
2016-09-26T00:22:34.188Z,17.14
2016-09-26T00:23:34.171Z,17.19
2016-09-26T00:24:34.148Z,17.14
2016-09-26T00:25:34.126Z,17.22
2016-09-26T00:26:34.404Z,17.16
2016-09-26T00:27:34.080Z,17.14
2016-09-26T00:28:34.063Z,17.19
2016-09-26T00:29:34.037Z,17.16
2016-09-26T00:30:34.013Z,17.19
2016-09-26T00:31:33.994Z,17.19
2016-09-26T00:32:33.971Z,17.12
2016-09-26T00:33:33.950Z,17.15
2016-09-26T00:34:33.926Z,17.15
2016-09-26T00:35:33.901Z,17.08
2016-09-26T00:36:33.891Z,17.08
2016-09-26T00:37:33.863Z,17.16
2016-09-26T00:38:33.856Z,17.15
2016-09-26T00:39:33.817Z,17.08
2016-09-26T00:40:33.795Z,17.11
2016-09-26T00:41:33.773Z,17.09
2016-09-26T00:42:33.754Z,17.09
2016-09-26T00:43:33.728Z,17.05
2016-09-26T00:44:33.709Z,17.08
2016-09-26T00:45:33.687Z,17.06
2016-09-26T00:46:33.663Z,17.11
2016-09-26T00:47:33.655Z,17.12
2016-09-26T00:48:33.615Z,17.12
2016-09-26T00:49:33.598Z,17.08
2016-09-26T00:50:33.584Z,17.05
2016-09-26T00:51:33.551Z,17.05
2016-09-26T00:52:33.530Z,17.01
2016-09-26T00:53:33.513Z,16.99
2016-09-26T00:54:33.490Z,17.02
2016-09-26T00:55:33.468Z,17.04
2016-09-26T00:56:33.443Z,17.08
2016-09-26T00:57:33.426Z,17.05
2016-09-26T00:58:33.400Z,17.02
2016-09-26T00:59:33.389Z,17.08
2016-09-26T01:00:33.356Z,17.06
2016-09-26T01:01:33.339Z,16.96
2016-09-26T01:02:33.319Z,16.96
2016-09-26T01:03:33.293Z,16.99
2016-09-26T01:04:33.277Z,17.02
2016-09-26T01:05:33.251Z,16.96
2016-09-26T01:06:33.227Z,16.99
2016-09-26T01:07:33.204Z,16.96
2016-09-26T01:08:33.184Z,16.94
2016-09-26T01:09:33.155Z,17.02
2016-09-26T01:10:33.138Z,17.04
2016-09-26T01:11:33.119Z,17.05
2016-09-26T01:12:33.095Z,16.99
2016-09-26T01:13:33.070Z,17.01
2016-09-26T01:14:33.046Z,17.02
2016-09-26T01:15:33.028Z,16.99
2016-09-26T01:16:33.006Z,17.05
2016-09-26T01:17:32.985Z,17.01
2016-09-26T01:18:32.963Z,17.06
2016-09-26T01:19:32.973Z,17.05
2016-09-26T01:20:32.916Z,17.04
2016-09-26T01:21:32.892Z,17.02
2016-09-26T01:22:32.870Z,17.02
2016-09-26T01:23:32.852Z,16.99
2016-09-26T01:24:32.829Z,17.01
2016-09-26T01:25:32.809Z,17.01
2016-09-26T01:26:32.840Z,17.05
2016-09-26T01:27:32.763Z,17.05
2016-09-26T01:28:32.742Z,16.97
2016-09-26T01:29:32.722Z,16.97
2016-09-26T01:30:32.702Z,16.94
2016-09-26T01:31:32.682Z,16.96
2016-09-26T01:32:32.651Z,17.02
2016-09-26T01:33:32.632Z,16.97
2016-09-26T01:34:32.614Z,16.94
2016-09-26T01:35:32.583Z,16.93
2016-09-26T01:36:32.595Z,17.04
2016-09-26T01:37:32.544Z,17.01
2016-09-26T01:38:32.527Z,17.01
2016-09-26T01:39:32.498Z,16.97
2016-09-26T01:40:32.480Z,17.04
2016-09-26T01:41:32.464Z,17.04
2016-09-26T01:42:32.434Z,17.08
2016-09-26T01:43:32.410Z,17.01
2016-09-26T01:44:32.390Z,17.08
2016-09-26T01:45:32.369Z,17.05
2016-09-26T01:46:32.345Z,17.04
2016-09-26T01:47:32.324Z,17.04
2016-09-26T01:48:32.302Z,17.05
2016-09-26T01:49:32.283Z,17.04
2016-09-26T01:50:32.258Z,17.04
2016-09-26T01:51:32.240Z,17.06
2016-09-26T01:52:32.221Z,17.05
2016-09-26T01:53:32.195Z,17.11
2016-09-26T01:54:32.171Z,17.2
2016-09-26T01:55:32.153Z,17.16
2016-09-26T01:56:32.123Z,17.19
2016-09-26T01:57:32.104Z,17.06
2016-09-26T01:58:32.085Z,17.16
2016-09-26T01:59:32.060Z,17.22
2016-09-26T02:00:32.039Z,17.16
2016-09-26T02:01:32.014Z,17.2
2016-09-26T02:02:31.999Z,17.16
2016-09-26T02:03:31.975Z,17.11
2016-09-26T02:04:31.952Z,17.16
2016-09-26T02:05:31.930Z,17.09
2016-09-26T02:06:31.909Z,17.19
2016-09-26T02:07:31.889Z,17.16
2016-09-26T02:08:31.862Z,17.12
2016-09-26T02:09:31.846Z,17.09
2016-09-26T02:10:31.822Z,17.12
2016-09-26T02:11:31.801Z,17.11
2016-09-26T02:12:31.783Z,17.05
2016-09-26T02:13:31.755Z,17.05
2016-09-26T02:14:31.733Z,17.08
2016-09-26T02:15:31.711Z,17.16
2016-09-26T02:16:31.687Z,17.06
2016-09-26T02:17:31.679Z,17.12
2016-09-26T02:18:31.648Z,17.06
2016-09-26T02:19:31.622Z,17.09
2016-09-26T02:20:31.605Z,17.12
2016-09-26T02:21:31.582Z,17.08
2016-09-26T02:22:31.559Z,17.16
2016-09-26T02:23:31.538Z,17.15
2016-09-26T02:24:31.512Z,17.05
2016-09-26T02:25:31.493Z,17.09
2016-09-26T02:26:31.473Z,17.09
2016-09-26T02:27:31.449Z,17.12
2016-09-26T02:28:31.427Z,17.05
2016-09-26T02:29:31.414Z,17.11
2016-09-26T02:30:31.389Z,17.11
2016-09-26T02:31:31.364Z,17.05
2016-09-26T02:32:31.342Z,17.08
2016-09-26T02:33:31.323Z,17.15
2016-09-26T02:34:31.296Z,17.09
2016-09-26T02:35:31.276Z,17.08
2016-09-26T02:36:31.251Z,17.06
2016-09-26T02:37:31.228Z,17.06
2016-09-26T02:38:31.212Z,17.11
2016-09-26T02:39:31.188Z,17.05
2016-09-26T02:40:31.166Z,17.12
2016-09-26T02:41:31.143Z,17.12
2016-09-26T02:42:31.119Z,17.19
2016-09-26T02:43:31.101Z,17.09
2016-09-26T02:44:31.077Z,17.08
2016-09-26T02:45:31.059Z,17.09
2016-09-26T02:46:31.038Z,17.08
2016-09-26T02:47:31.021Z,17.04
2016-09-26T02:48:30.995Z,17.05
2016-09-26T02:49:30.982Z,17.06
2016-09-26T02:50:30.948Z,17.19
2016-09-26T02:51:30.924Z,17.05
2016-09-26T02:52:30.907Z,17.05
2016-09-26T02:53:30.885Z,17.02
2016-09-26T02:54:30.864Z,17.12
2016-09-26T02:55:30.837Z,17.14
2016-09-26T02:56:30.816Z,17.19
2016-09-26T02:57:30.795Z,17.15
2016-09-26T02:58:30.771Z,17.08
2016-09-26T02:59:30.752Z,17.16
2016-09-26T03:00:30.735Z,17.12
2016-09-26T03:01:30.710Z,17.06
2016-09-26T03:02:30.689Z,17.05
2016-09-26T03:03:30.664Z,17.11
2016-09-26T03:04:30.645Z,17.08
2016-09-26T03:05:30.620Z,17.08
2016-09-26T03:06:30.596Z,17.11
2016-09-26T03:07:30.581Z,17.08
2016-09-26T03:08:30.555Z,17.11
2016-09-26T03:09:30.533Z,17.11
2016-09-26T03:10:30.514Z,17.02
2016-09-26T03:11:30.492Z,17.08
2016-09-26T03:12:30.470Z,17.08
2016-09-26T03:13:30.448Z,17.05
2016-09-26T03:14:30.424Z,17.04
2016-09-26T03:15:30.402Z,17.08
2016-09-26T03:16:30.384Z,16.97
2016-09-26T03:17:30.359Z,16.96
2016-09-26T03:18:30.337Z,17.04
2016-09-26T03:19:30.314Z,17.04
2016-09-26T03:20:30.293Z,17.01
2016-09-26T03:21:30.276Z,16.96
2016-09-26T03:22:30.249Z,17.01
2016-09-26T03:23:30.236Z,16.96
2016-09-26T03:24:30.210Z,16.96
2016-09-26T03:25:30.186Z,16.97
2016-09-26T03:26:30.166Z,16.97
2016-09-26T03:27:30.141Z,16.97
2016-09-26T03:28:30.122Z,16.97
2016-09-26T03:29:30.104Z,16.94
2016-09-26T03:30:30.072Z,16.99
2016-09-26T03:31:30.057Z,17.02
2016-09-26T03:32:30.032Z,16.97
2016-09-26T03:33:30.010Z,17.01
2016-09-26T03:34:29.993Z,16.93
2016-09-26T03:35:29.965Z,16.99
2016-09-26T03:36:29.953Z,16.94
2016-09-26T03:37:29.918Z,17.01
2016-09-26T03:38:30.196Z,16.99
2016-09-26T03:39:29.878Z,17.01
2016-09-26T03:40:30.155Z,17.05
2016-09-26T03:41:29.836Z,17.05
2016-09-26T03:42:29.813Z,17.02
2016-09-26T03:43:29.788Z,17.01
2016-09-26T03:44:29.773Z,16.97
2016-09-26T03:45:29.752Z,17.02
2016-09-26T03:46:29.723Z,17.02
2016-09-26T03:47:29.702Z,16.99
2016-09-26T03:48:29.684Z,17.01
2016-09-26T03:49:29.952Z,17.02
2016-09-26T03:50:29.638Z,16.99
2016-09-26T03:51:29.616Z,17.01
2016-09-26T03:52:29.592Z,16.97
2016-09-26T03:53:29.573Z,16.97
2016-09-26T03:54:29.553Z,16.96
2016-09-26T03:55:29.525Z,16.97
2016-09-26T03:56:29.505Z,16.97
2016-09-26T03:57:29.487Z,16.94
2016-09-26T03:58:29.460Z,16.9
2016-09-26T03:59:29.737Z,16.96
2016-09-26T04:00:29.713Z,16.91
2016-09-26T04:01:29.393Z,16.94
2016-09-26T04:02:29.376Z,16.91
2016-09-26T04:03:29.351Z,16.9
2016-09-26T04:04:29.332Z,16.89
2016-09-26T04:05:29.308Z,16.84
2016-09-26T04:06:29.283Z,16.84
2016-09-26T04:07:29.264Z,16.86
2016-09-26T04:08:29.249Z,16.75
2016-09-26T04:09:29.218Z,16.81
2016-09-26T04:10:29.202Z,16.72
2016-09-26T04:11:29.179Z,16.69
2016-09-26T04:12:29.159Z,16.71
2016-09-26T04:13:29.134Z,16.72
2016-09-26T04:14:29.115Z,16.68
2016-09-26T04:15:29.087Z,16.74
2016-09-26T04:16:29.085Z,16.66
2016-09-26T04:17:29.044Z,16.65
2016-09-26T04:18:29.023Z,16.69
2016-09-26T04:19:29.004Z,16.71
2016-09-26T04:20:28.976Z,16.6
2016-09-26T04:21:28.968Z,16.6
2016-09-26T04:22:28.932Z,16.72
2016-09-26T04:23:28.918Z,16.66
2016-09-26T04:24:28.888Z,16.72
2016-09-26T04:25:28.868Z,16.65
2016-09-26T04:26:28.845Z,16.65
2016-09-26T04:27:28.824Z,16.58
2016-09-26T04:28:28.804Z,16.6
2016-09-26T04:29:29.077Z,16.57
2016-09-26T04:30:28.754Z,16.64
2016-09-26T04:31:28.733Z,16.58
2016-09-26T04:32:28.708Z,16.6
2016-09-26T04:33:28.704Z,16.56
2016-09-26T04:34:28.667Z,16.5
2016-09-26T04:35:28.643Z,16.47
2016-09-26T04:36:28.623Z,16.42
2016-09-26T04:37:28.598Z,16.53
2016-09-26T04:38:28.573Z,16.38
2016-09-26T04:39:28.566Z,16.36
2016-09-26T04:40:28.535Z,16.38
2016-09-26T04:41:28.506Z,16.36
2016-09-26T04:42:28.486Z,16.36
2016-09-26T04:43:28.485Z,16.32
2016-09-26T04:44:28.449Z,16.36
2016-09-26T04:45:28.421Z,16.24
2016-09-26T04:46:28.402Z,16.21
2016-09-26T04:47:28.375Z,16.2
2016-09-26T04:48:28.353Z,16.21
2016-09-26T04:49:28.630Z,16.26
2016-09-26T04:50:28.306Z,16.21
2016-09-26T04:51:28.284Z,16.13
2016-09-26T04:52:28.257Z,16.21
2016-09-26T04:53:28.240Z,16.12
2016-09-26T04:54:28.214Z,16.13
2016-09-26T04:55:28.188Z,16.08
2016-09-26T04:56:28.184Z,16.15
2016-09-26T04:57:28.147Z,16.12
2016-09-26T04:58:28.119Z,16.08
2016-09-26T04:59:28.106Z,16.05
2016-09-26T05:00:28.076Z,16.05
2016-09-26T05:01:28.054Z,16.1
2016-09-26T05:02:28.031Z,16.02
2016-09-26T05:03:28.008Z,16.05
2016-09-26T05:04:27.985Z,15.98
2016-09-26T05:05:27.965Z,15.98
2016-09-26T05:06:27.942Z,15.91
2016-09-26T05:07:27.917Z,15.88
2016-09-26T05:08:27.896Z,15.8
2016-09-26T05:09:27.875Z,15.76
2016-09-26T05:10:27.851Z,15.83
2016-09-26T05:11:27.827Z,15.8
2016-09-26T05:12:27.802Z,15.72
2016-09-26T05:13:27.781Z,15.75
2016-09-26T05:14:27.757Z,15.65
2016-09-26T05:15:27.733Z,15.65
2016-09-26T05:16:27.716Z,15.68
2016-09-26T05:17:27.688Z,15.57
2016-09-26T05:18:27.661Z,15.58
2016-09-26T05:19:27.648Z,15.58
2016-09-26T05:20:27.620Z,15.59
2016-09-26T05:21:27.595Z,15.59
2016-09-26T05:22:27.577Z,15.49
2016-09-26T05:23:27.550Z,15.47
2016-09-26T05:24:27.528Z,15.55
2016-09-26T05:25:27.504Z,15.46
2016-09-26T05:26:27.482Z,15.44
2016-09-26T05:27:27.463Z,15.51
2016-09-26T05:28:27.435Z,15.46
2016-09-26T05:29:27.411Z,15.43
2016-09-26T05:30:27.390Z,15.47
2016-09-26T05:31:27.362Z,15.35
2016-09-26T05:32:27.344Z,15.31
2016-09-26T05:33:27.315Z,15.25
2016-09-26T05:34:27.292Z,15.21
2016-09-26T05:35:27.270Z,15.14
2016-09-26T05:36:27.246Z,15.22
2016-09-26T05:37:27.221Z,15.24
2016-09-26T05:38:27.201Z,15.19
2016-09-26T05:39:27.473Z,15.03
2016-09-26T05:40:27.155Z,15.21
2016-09-26T05:41:27.131Z,15.04
2016-09-26T05:42:27.107Z,15.14
2016-09-26T05:43:27.084Z,15.14
2016-09-26T05:44:27.061Z,15.18
2016-09-26T05:45:27.035Z,15.14
2016-09-26T05:46:27.014Z,15.03
2016-09-26T05:47:26.989Z,15.02
2016-09-26T05:48:26.968Z,15.07
2016-09-26T05:49:26.940Z,15.04
2016-09-26T05:50:26.917Z,14.99
2016-09-26T05:51:26.892Z,15.03
2016-09-26T05:52:26.874Z,14.92
2016-09-26T05:53:26.849Z,14.91
2016-09-26T05:54:26.823Z,14.96
2016-09-26T05:55:26.800Z,14.97
2016-09-26T05:56:26.777Z,14.94
2016-09-26T05:57:26.751Z,14.94
2016-09-26T05:58:26.727Z,14.94
2016-09-26T05:59:26.705Z,14.97
2016-09-26T06:00:26.686Z,14.85
2016-09-26T06:01:26.656Z,14.88
2016-09-26T06:02:26.634Z,14.91
2016-09-26T06:03:26.623Z,14.92
2016-09-26T06:04:26.587Z,14.85
2016-09-26T06:05:26.876Z,14.96
2016-09-26T06:06:26.548Z,14.92
2016-09-26T06:07:26.519Z,14.91
2016-09-26T06:08:26.498Z,14.86
2016-09-26T06:09:26.471Z,14.89
2016-09-26T06:10:26.448Z,14.85
2016-09-26T06:11:26.426Z,14.89
2016-09-26T06:12:26.400Z,14.92
2016-09-26T06:13:26.380Z,14.89
2016-09-26T06:14:26.361Z,14.91
2016-09-26T06:15:26.331Z,14.91
2016-09-26T06:16:26.308Z,14.91
2016-09-26T06:17:26.285Z,14.96
2016-09-26T06:18:26.260Z,14.91
2016-09-26T06:19:26.234Z,14.97
2016-09-26T06:20:26.216Z,14.89
2016-09-26T06:21:26.188Z,14.92
2016-09-26T06:22:26.166Z,14.89
2016-09-26T06:23:26.151Z,14.86
2016-09-26T06:24:26.117Z,14.97
2016-09-26T06:25:26.096Z,14.94
2016-09-26T06:26:26.070Z,15.02
2016-09-26T06:27:26.044Z,14.92
2016-09-26T06:28:26.028Z,14.97
2016-09-26T06:29:26.004Z,15.04
2016-09-26T06:30:25.979Z,14.91
2016-09-26T06:31:25.963Z,14.92
2016-09-26T06:32:25.938Z,14.96
2016-09-26T06:33:25.916Z,14.92
2016-09-26T06:34:25.886Z,14.97
2016-09-26T06:35:25.858Z,14.86
2016-09-26T06:36:25.840Z,14.94
2016-09-26T06:37:25.814Z,14.91
2016-09-26T06:38:25.793Z,14.85
2016-09-26T06:39:25.795Z,14.89
2016-09-26T06:40:25.745Z,14.86
2016-09-26T06:41:25.720Z,14.89
2016-09-26T06:42:25.699Z,14.86
2016-09-26T06:43:25.677Z,14.99
2016-09-26T06:44:25.649Z,14.94
2016-09-26T06:45:25.633Z,14.88
2016-09-26T06:46:25.601Z,15.03
2016-09-26T06:47:25.584Z,15.06
2016-09-26T06:48:25.559Z,15.09
2016-09-26T06:49:25.535Z,15.1
2016-09-26T06:50:25.510Z,15.03
2016-09-26T06:51:25.492Z,15.14
2016-09-26T06:52:25.467Z,15.15
2016-09-26T06:53:25.442Z,15.1
2016-09-26T06:54:25.417Z,15.11
2016-09-26T06:55:25.396Z,15.1
2016-09-26T06:56:25.372Z,15.17
2016-09-26T06:57:25.350Z,15.18
2016-09-26T06:58:25.327Z,15.21
2016-09-26T06:59:25.310Z,15.18
2016-09-26T07:00:25.282Z,15.19
2016-09-26T07:01:25.253Z,15.18
2016-09-26T07:02:25.235Z,15.22
2016-09-26T07:03:25.212Z,15.21
2016-09-26T07:04:25.185Z,15.19
2016-09-26T07:05:25.165Z,15.22
2016-09-26T07:06:25.142Z,15.29
2016-09-26T07:07:25.125Z,15.22
2016-09-26T07:08:25.093Z,15.22
2016-09-26T07:09:25.072Z,15.18
2016-09-26T07:10:25.047Z,15.17
2016-09-26T07:11:25.029Z,15.17
2016-09-26T07:12:25.006Z,15.22
2016-09-26T07:13:24.979Z,15.27
2016-09-26T07:14:24.955Z,15.27
2016-09-26T07:15:24.929Z,15.28
2016-09-26T07:16:24.908Z,15.31
2016-09-26T07:17:24.888Z,15.28
2016-09-26T07:18:24.863Z,15.29
2016-09-26T07:19:24.845Z,15.33
2016-09-26T07:20:24.817Z,15.29
2016-09-26T07:21:24.795Z,15.28
2016-09-26T07:22:24.773Z,15.31
2016-09-26T07:23:24.748Z,15.35
2016-09-26T07:24:24.727Z,15.36
2016-09-26T07:25:24.705Z,15.43
2016-09-26T07:26:24.676Z,15.42
2016-09-26T07:27:24.663Z,15.44
2016-09-26T07:28:24.643Z,15.43
2016-09-26T07:29:24.610Z,15.44
2016-09-26T07:30:24.591Z,15.4
2016-09-26T07:31:24.577Z,15.49
2016-09-26T07:32:24.584Z,15.44
2016-09-26T07:33:24.520Z,15.44
2016-09-26T07:34:24.498Z,15.52
2016-09-26T07:35:24.474Z,15.52
2016-09-26T07:36:24.452Z,15.46
2016-09-26T07:37:24.430Z,15.57
2016-09-26T07:38:24.409Z,15.55
2016-09-26T07:39:24.384Z,15.55
2016-09-26T07:40:24.361Z,15.62
2016-09-26T07:41:24.338Z,15.59
2016-09-26T07:42:24.317Z,15.64
2016-09-26T07:43:24.298Z,15.75
2016-09-26T07:44:24.270Z,15.75
2016-09-26T07:45:24.250Z,15.76
2016-09-26T07:46:24.227Z,15.83
2016-09-26T07:47:24.214Z,15.76
2016-09-26T07:48:24.184Z,15.79
2016-09-26T07:49:24.160Z,15.82
2016-09-26T07:50:24.139Z,15.83
2016-09-26T07:51:24.116Z,15.83
2016-09-26T07:52:24.092Z,15.88
2016-09-26T07:53:24.069Z,15.84
2016-09-26T07:54:24.043Z,15.86
2016-09-26T07:55:24.020Z,15.92
2016-09-26T07:56:24.004Z,15.88
2016-09-26T07:57:23.987Z,15.95
2016-09-26T07:58:23.955Z,16.08
2016-09-26T07:59:23.935Z,16.01
2016-09-26T08:00:23.919Z,16.04
2016-09-26T08:01:23.916Z,16.12
2016-09-26T08:02:23.921Z,16.12
2016-09-26T08:03:23.849Z,16.09
2016-09-26T08:04:23.853Z,16.15
2016-09-26T08:05:23.800Z,16.12
2016-09-26T08:06:23.788Z,16.17
2016-09-26T08:07:23.756Z,16.21
2016-09-26T08:08:23.736Z,16.31
2016-09-26T08:09:23.710Z,16.36
2016-09-26T08:10:23.696Z,16.29
2016-09-26T08:11:23.668Z,16.29
2016-09-26T08:12:23.641Z,16.12
2016-09-26T08:13:23.622Z,16.24
2016-09-26T08:14:23.600Z,16.28
2016-09-26T08:15:23.577Z,16.33
2016-09-26T08:16:23.555Z,16.33
2016-09-26T08:17:23.537Z,16.35
2016-09-26T08:18:23.518Z,16.39
2016-09-26T08:19:23.497Z,16.35
2016-09-26T08:20:23.762Z,16.42
2016-09-26T08:21:23.455Z,16.36
2016-09-26T08:22:23.424Z,16.42
2016-09-26T08:23:23.400Z,16.47
2016-09-26T08:24:23.379Z,16.46
2016-09-26T08:25:23.356Z,16.51
2016-09-26T08:26:23.334Z,16.61
2016-09-26T08:27:23.316Z,16.65
2016-09-26T08:28:23.296Z,16.65
2016-09-26T08:29:23.286Z,16.72
2016-09-26T08:30:23.251Z,16.69
2016-09-26T08:31:23.226Z,16.71
2016-09-26T08:32:23.205Z,16.78
2016-09-26T08:33:23.184Z,16.71
2016-09-26T08:34:23.162Z,16.78
2016-09-26T08:35:23.135Z,16.74
2016-09-26T08:36:23.117Z,16.69
2016-09-26T08:37:23.095Z,16.74
2016-09-26T08:38:23.075Z,16.68
2016-09-26T08:39:23.048Z,16.72
2016-09-26T08:40:23.030Z,16.78
2016-09-26T08:41:23.011Z,16.84
2016-09-26T08:42:22.987Z,16.9
2016-09-26T08:43:22.965Z,16.86
2016-09-26T08:44:22.941Z,16.94
2016-09-26T08:45:22.922Z,16.94
2016-09-26T08:46:23.062Z,16.93
2016-09-26T08:47:22.878Z,17.04
2016-09-26T08:48:22.912Z,16.94
2016-09-26T08:49:22.837Z,16.96
2016-09-26T08:50:22.811Z,16.99
2016-09-26T08:51:23.091Z,17.09
2016-09-26T08:52:23.071Z,17.05
2016-09-26T08:53:22.756Z,17.14
2016-09-26T08:54:22.729Z,17.15
2016-09-26T08:55:22.707Z,17.22
2016-09-26T08:56:22.700Z,17.12
2016-09-26T08:57:22.666Z,17.27
2016-09-26T08:58:23.248Z,17.24
2016-09-26T08:59:22.623Z,17.29
2016-09-26T09:00:22.601Z,17.26
2016-09-26T09:01:22.577Z,17.27
2016-09-26T09:02:22.559Z,17.31
2016-09-26T09:03:22.537Z,17.34
2016-09-26T09:04:22.526Z,17.31
2016-09-26T09:05:22.503Z,17.39
2016-09-26T09:06:22.490Z,17.41
2016-09-26T09:07:22.456Z,17.41
2016-09-26T09:08:22.435Z,17.42
2016-09-26T09:09:22.408Z,17.46
2016-09-26T09:10:22.387Z,17.42
2016-09-26T09:11:22.369Z,17.49
2016-09-26T09:12:22.366Z,17.49
2016-09-26T09:13:22.689Z,17.52
2016-09-26T09:14:22.331Z,17.59
2016-09-26T09:15:22.286Z,17.6
2016-09-26T09:16:22.259Z,17.7
2016-09-26T09:17:22.240Z,17.76
2016-09-26T09:18:22.251Z,17.72
2016-09-26T09:19:22.199Z,17.82
2016-09-26T09:20:22.177Z,17.8
2016-09-26T09:21:22.159Z,17.95
2016-09-26T09:22:22.139Z,17.97
2016-09-26T09:23:22.118Z,17.97
2016-09-26T09:24:22.096Z,18.05
2016-09-26T09:25:22.079Z,18.18
2016-09-26T09:26:22.052Z,18.07
2016-09-26T09:27:22.032Z,18.16
2016-09-26T09:28:22.015Z,18.16
2016-09-26T09:29:22.003Z,18.23
2016-09-26T09:30:21.970Z,18.22
2016-09-26T09:31:21.951Z,18.34
2016-09-26T09:32:21.933Z,18.34
2016-09-26T09:33:21.914Z,18.35
2016-09-26T09:34:21.889Z,18.34
2016-09-26T09:35:21.866Z,18.38
2016-09-26T09:36:21.848Z,18.38
2016-09-26T09:37:21.832Z,18.41
2016-09-26T09:38:21.806Z,18.44
2016-09-26T09:39:21.787Z,18.37
2016-09-26T09:40:21.767Z,18.45
2016-09-26T09:41:21.746Z,18.47
2016-09-26T09:42:21.725Z,18.49
2016-09-26T09:43:21.708Z,18.5
2016-09-26T09:44:21.687Z,18.52
2016-09-26T09:45:21.668Z,18.58
2016-09-26T09:46:21.646Z,18.55
2016-09-26T09:47:21.923Z,18.7
2016-09-26T09:48:21.602Z,18.62
2016-09-26T09:49:21.584Z,18.59
2016-09-26T09:50:21.564Z,18.6
2016-09-26T09:51:21.544Z,18.62
2016-09-26T09:52:21.525Z,18.75
2016-09-26T09:53:21.504Z,18.73
2016-09-26T09:54:21.484Z,18.75
2016-09-26T09:55:21.462Z,18.89
2016-09-26T09:56:21.443Z,18.88
2016-09-26T09:57:21.424Z,18.86
2016-09-26T09:58:21.400Z,18.99
2016-09-26T09:59:21.392Z,19.07
2016-09-26T10:00:21.367Z,19.07
2016-09-26T10:01:21.639Z,19.18
2016-09-26T10:02:21.332Z,19.19
2016-09-26T10:03:21.305Z,19.21
2016-09-26T10:04:21.288Z,19.26
2016-09-26T10:05:21.273Z,19.29
2016-09-26T10:06:21.249Z,19.44
2016-09-26T10:07:21.232Z,19.49
2016-09-26T10:08:21.217Z,19.54
2016-09-26T10:09:21.516Z,19.67
2016-09-26T10:10:21.171Z,19.74
2016-09-26T10:11:21.456Z,19.79
2016-09-26T10:12:21.134Z,19.82
2016-09-26T10:13:21.142Z,19.89
2016-09-26T10:14:21.100Z,19.89
2016-09-26T10:15:21.089Z,19.91
2016-09-26T10:16:21.060Z,19.96
2016-09-26T10:17:21.047Z,20
2016-09-26T10:18:21.025Z,20.04
2016-09-26T10:19:21.004Z,20.1
2016-09-26T10:20:20.990Z,20.18
2016-09-26T10:21:20.969Z,20.24
2016-09-26T10:22:20.951Z,20.44
2016-09-26T10:23:20.934Z,20.43
2016-09-26T10:24:20.913Z,20.52
2016-09-26T10:25:20.900Z,20.55
2016-09-26T10:26:20.891Z,20.62
2016-09-26T10:27:20.858Z,20.58
2016-09-26T10:28:20.849Z,20.66
2016-09-26T10:29:20.827Z,20.59
2016-09-26T10:30:20.813Z,20.69
2016-09-26T10:31:20.796Z,20.74
2016-09-26T10:32:20.775Z,20.74
2016-09-26T10:33:20.758Z,20.88
2016-09-26T10:34:20.743Z,20.92
2016-09-26T10:35:20.723Z,20.92
2016-09-26T10:36:20.706Z,21.03
2016-09-26T10:37:20.690Z,21.09
2016-09-26T10:38:20.966Z,21.18
2016-09-26T10:39:20.658Z,21.12
2016-09-26T10:40:20.641Z,21.25
2016-09-26T10:41:20.624Z,21.18
2016-09-26T10:42:20.612Z,21.32
2016-09-26T10:43:20.586Z,21.43
2016-09-26T10:44:20.575Z,21.54
2016-09-26T10:45:20.553Z,21.67
2016-09-26T10:46:20.549Z,21.7
2016-09-26T10:47:20.520Z,21.82
2016-09-26T10:48:20.505Z,21.88
2016-09-26T10:49:20.495Z,22.06
2016-09-26T10:50:20.475Z,22.17
2016-09-26T10:51:20.461Z,22.15
2016-09-26T10:52:20.441Z,22.26
2016-09-26T10:53:20.427Z,22.28
2016-09-26T10:54:20.410Z,22.45
2016-09-26T10:55:20.686Z,22.39
2016-09-26T10:56:20.376Z,22.5
2016-09-26T10:57:20.362Z,22.54
2016-09-26T10:58:20.346Z,22.69
2016-09-26T10:59:20.328Z,22.8
2016-09-26T11:00:20.316Z,22.87
2016-09-26T11:01:20.298Z,22.87
2016-09-26T11:02:20.293Z,23.08
2016-09-26T11:03:20.264Z,23.1
2016-09-26T11:04:20.252Z,23.13
2016-09-26T11:05:20.232Z,23.12
2016-09-26T11:06:20.216Z,23.13
2016-09-26T11:07:20.203Z,23.17
2016-09-26T11:08:20.197Z,23.28
2016-09-26T11:09:20.169Z,23.15
2016-09-26T11:10:20.158Z,23.18
2016-09-26T11:11:20.142Z,23.15
2016-09-26T11:12:20.131Z,23
2016-09-26T11:13:20.111Z,22.9
2016-09-26T11:14:20.092Z,22.7
2016-09-26T11:15:20.080Z,22.6
2016-09-26T11:16:20.063Z,22.48
2016-09-26T11:17:20.042Z,22.44
2016-09-26T11:18:20.035Z,22.38
2016-09-26T11:19:20.016Z,22.25
2016-09-26T11:20:19.996Z,22.26
2016-09-26T11:21:20.130Z,22.22
2016-09-26T11:22:19.967Z,22.18
2016-09-26T11:23:19.947Z,22.11
2016-09-26T11:24:19.935Z,21.98
2016-09-26T11:25:19.918Z,21.93
2016-09-26T11:26:19.905Z,21.88
2016-09-26T11:27:19.887Z,21.82
2016-09-26T11:28:19.871Z,21.8
2016-09-26T11:29:19.854Z,21.8
2016-09-26T11:30:19.836Z,21.67
2016-09-26T11:31:19.820Z,21.6
2016-09-26T11:32:19.805Z,21.61
2016-09-26T11:33:19.791Z,21.61
2016-09-26T11:34:19.771Z,21.62
2016-09-26T11:35:19.754Z,21.57
2016-09-26T11:36:19.735Z,21.52
2016-09-26T11:37:19.716Z,21.54
2016-09-26T11:38:19.700Z,21.48
2016-09-26T11:39:19.682Z,21.36
2016-09-26T11:40:19.669Z,21.42
2016-09-26T11:41:19.652Z,21.43
2016-09-26T11:42:19.631Z,21.52
2016-09-26T11:43:19.617Z,21.55
2016-09-26T11:44:19.596Z,21.51
2016-09-26T11:45:19.581Z,21.55
2016-09-26T11:46:19.561Z,21.5
2016-09-26T11:47:19.542Z,21.46
2016-09-26T11:48:19.529Z,21.42
2016-09-26T11:49:19.514Z,21.48
2016-09-26T11:50:19.494Z,21.39
2016-09-26T11:51:19.476Z,21.37
2016-09-26T11:52:19.455Z,21.43
2016-09-26T11:53:19.438Z,21.36
2016-09-26T11:54:19.423Z,21.36
2016-09-26T11:55:19.407Z,21.35
2016-09-26T11:56:19.696Z,21.4
2016-09-26T11:57:19.371Z,21.42
2016-09-26T11:58:19.352Z,21.37
2016-09-26T11:59:19.339Z,21.43
2016-09-26T12:00:19.577Z,21.43
2016-09-26T12:01:19.301Z,21.46
2016-09-26T12:02:19.285Z,21.4
2016-09-26T12:03:19.265Z,21.43
2016-09-26T12:04:19.249Z,21.35
2016-09-26T12:05:19.341Z,21.45
2016-09-26T12:06:19.213Z,21.51
2016-09-26T12:07:19.230Z,21.57
2016-09-26T12:08:19.260Z,21.6
2016-09-26T12:09:19.461Z,21.7
2016-09-26T12:10:20.179Z,21.67
2016-09-26T12:11:19.240Z,21.61
2016-09-26T12:12:19.120Z,21.61
2016-09-26T12:13:19.093Z,21.62
2016-09-26T12:14:19.080Z,21.62
2016-09-26T12:15:19.058Z,21.66
2016-09-26T12:16:19.042Z,21.7
2016-09-26T12:17:19.023Z,21.62
2016-09-26T12:18:19.002Z,21.75
2016-09-26T12:19:18.988Z,21.79
2016-09-26T12:20:19.321Z,21.82
2016-09-26T12:21:18.954Z,21.93
2016-09-26T12:22:18.939Z,21.88
2016-09-26T12:23:18.917Z,22.1
2016-09-26T12:24:18.903Z,22.06
2016-09-26T12:25:18.884Z,22.04
2016-09-26T12:26:18.866Z,22.06
2016-09-26T12:27:18.846Z,22.04
2016-09-26T12:28:18.834Z,22.06
2016-09-26T12:29:18.817Z,22.13
2016-09-26T12:30:18.803Z,21.98
2016-09-26T12:31:18.781Z,22.06
2016-09-26T12:32:18.763Z,22.07
2016-09-26T12:33:19.046Z,22.07
2016-09-26T12:34:18.727Z,22.13
2016-09-26T12:35:18.713Z,22.17
2016-09-26T12:36:18.697Z,22.17
2016-09-26T12:37:18.987Z,22.18
2016-09-26T12:38:18.966Z,22.29
2016-09-26T12:39:18.646Z,22.3
2016-09-26T12:40:18.624Z,22.32
2016-09-26T12:41:18.611Z,22.36
2016-09-26T12:42:18.595Z,22.41
2016-09-26T12:43:18.573Z,22.43
2016-09-26T12:44:18.564Z,22.36
2016-09-26T12:45:18.541Z,22.3
2016-09-26T12:46:18.529Z,22.28
2016-09-26T12:47:18.508Z,22.29
2016-09-26T12:48:18.492Z,22.28
2016-09-26T12:49:18.493Z,22.29
2016-09-26T12:50:18.462Z,22.28
2016-09-26T12:51:18.591Z,22.38
2016-09-26T12:52:18.427Z,22.43
2016-09-26T12:53:18.412Z,22.39
2016-09-26T12:54:18.394Z,22.45